Time;durP1;ratioP1;P1;durP2;ratioP2;P2;SDS_P1;SDS_P2;PMS_P1;PMS_P2;Temp;Humidity;BMP_temperature;BMP_pressure;BME280_temperature;BME280_humidity;BME280_pressure;Samples;Min_cycle;Max_cycle;Signal;HPM_P1;HPM_P2
2021/04/15 00:00:56;;;;;;;19.33;14.75;;;3.80;99.90;;;;;;5054557;28;20051;-75
2021/04/15 00:03:29;;;;;;;22.65;15.57;;;3.80;99.90;;;;;;5054497;28;20032;-74
2021/04/15 00:05:57;;;;;;;24.23;15.63;;;3.80;99.90;;;;;;5054621;28;20028;-74
2021/04/15 00:08:23;;;;;;;24.33;16.15;;;3.80;99.90;;;;;;5053178;28;20021;-74
2021/04/15 00:10:52;;;;;;;25.48;14.95;;;3.80;99.90;;;;;;5054411;28;20032;-74
2021/04/15 00:13:23;;;;;;;37.85;17.10;;;3.80;99.90;;;;;;5054235;28;20104;-75
2021/04/15 00:15:50;;;;;;;27.58;17.08;;;3.80;99.90;;;;;;5054489;28;20136;-74
2021/04/15 00:18:16;;;;;;;19.80;14.75;;;3.80;99.90;;;;;;5054301;28;20025;-74
2021/04/15 00:20:42;;;;;;;19.13;14.90;;;3.70;99.90;;;;;;5054232;28;20039;-74
2021/04/15 00:23:08;;;;;;;19.35;14.80;;;3.80;99.90;;;;;;5054236;28;20473;-74
2021/04/15 00:25:34;;;;;;;21.33;15.48;;;3.70;99.90;;;;;;5054115;28;20029;-75
2021/04/15 00:27:59;;;;;;;19.92;15.40;;;3.60;99.90;;;;;;5053986;28;20029;-74
2021/04/15 00:30:25;;;;;;;20.77;15.43;;;3.40;99.90;;;;;;5054020;28;20036;-74
2021/04/15 00:32:51;;;;;;;26.23;16.30;;;3.20;99.90;;;;;;5053978;28;20032;-74
2021/04/15 00:35:20;;;;;;;22.88;15.77;;;3.20;99.90;;;;;;5053907;28;20477;-74
2021/04/15 00:37:46;;;;;;;20.55;15.07;;;3.20;99.90;;;;;;5053918;28;20021;-74
2021/04/15 00:40:13;;;;;;;20.55;15.70;;;3.10;99.90;;;;;;5053891;28;20028;-75
2021/04/15 00:42:39;;;;;;;21.48;16.85;;;3.30;99.90;;;;;;5053504;28;20024;-74
2021/04/15 00:45:18;;;;;;;23.83;16.17;;;3.30;99.90;;;;;;5053697;28;20534;-74
2021/04/15 00:47:48;;;;;;;19.95;15.50;;;3.20;99.90;;;;;;5053680;28;20461;-74
2021/04/15 00:50:28;;;;;;;22.10;15.35;;;3.10;99.90;;;;;;5052452;28;20051;-74
2021/04/15 00:52:57;;;;;;;24.15;15.88;;;2.90;99.90;;;;;;5053653;28;20018;-74
2021/04/15 00:55:26;;;;;;;22.70;15.77;;;3.10;99.90;;;;;;5052165;28;20083;-74
2021/04/15 00:57:54;;;;;;;24.98;16.52;;;3.20;99.90;;;;;;5052216;28;20025;-74
2021/04/15 01:00:25;;;;;;;20.23;15.35;;;3.30;99.90;;;;;;5053769;28;20020;-74
2021/04/15 01:02:53;;;;;;;23.98;15.18;;;3.40;99.90;;;;;;5053512;28;20021;-74
2021/04/15 01:05:24;;;;;;;23.27;15.00;;;3.50;99.90;;;;;;5053373;28;20091;-74
2021/04/15 01:07:51;;;;;;;19.13;14.45;;;3.60;99.90;;;;;;5053578;28;20036;-74
2021/04/15 01:10:18;;;;;;;19.92;14.15;;;3.60;99.90;;;;;;5053337;28;20134;-74
2021/04/15 01:12:58;;;;;;;21.85;15.57;;;3.50;99.90;;;;;;5053197;28;20412;-73
2021/04/15 01:15:35;;;;;;;19.48;14.23;;;3.40;99.90;;;;;;5051897;28;20033;-74
2021/04/15 01:18:23;;;;;;;27.40;16.00;;;3.10;99.90;;;;;;5053072;28;20401;-74
2021/04/15 01:21:12;;;;;;;21.45;16.10;;;3.20;99.90;;;;;;5039318;28;20098;-74
2021/04/15 01:24:07;;;;;;;27.13;18.58;;;3.30;99.90;;;;;;5051760;28;20105;-74
2021/04/15 01:27:10;;;;;;;22.67;15.77;;;3.30;99.90;;;;;;5052949;28;20036;-74
2021/04/15 01:30:07;;;;;;;25.58;16.40;;;3.30;99.90;;;;;;5052787;28;20057;-74
2021/04/15 01:32:37;;;;;;;24.65;18.35;;;3.30;99.90;;;;;;5051469;28;20021;-74
2021/04/15 01:35:03;;;;;;;27.63;17.70;;;3.50;99.90;;;;;;5052761;28;20052;-75
2021/04/15 01:37:39;;;;;;;30.55;18.58;;;3.50;99.90;;;;;;5052754;28;20488;-74
2021/04/15 01:40:28;;;;;;;25.88;17.42;;;3.40;99.90;;;;;;5034855;28;20392;-74
2021/04/15 01:43:17;;;;;;;26.38;18.05;;;3.50;99.90;;;;;;5052672;28;20028;-74
2021/04/15 01:45:46;;;;;;;30.95;18.60;;;3.50;99.90;;;;;;5052564;28;20017;-74
2021/04/15 01:48:17;;;;;;;25.17;17.58;;;3.50;99.90;;;;;;5052536;28;20028;-75
2021/04/15 01:50:45;;;;;;;24.03;16.37;;;3.30;99.90;;;;;;5052521;28;20025;-75
2021/04/15 01:53:23;;;;;;;28.85;16.40;;;3.00;99.90;;;;;;5052134;28;20033;-74
2021/04/15 01:56:11;;;;;;;21.98;16.58;;;3.10;99.90;;;;;;5052245;28;20036;-74
2021/04/15 01:58:45;;;;;;;22.08;16.45;;;3.10;99.90;;;;;;5051693;28;20029;-74
2021/04/15 02:01:16;;;;;;;25.77;17.83;;;3.00;99.90;;;;;;5051209;28;20029;-74
2021/04/15 02:03:44;;;;;;;23.70;17.42;;;2.90;99.90;;;;;;5052425;28;20029;-74
2021/04/15 02:06:23;;;;;;;25.10;18.30;;;2.90;99.90;;;;;;5052283;28;20017;-74
2021/04/15 02:08:52;;;;;;;24.33;17.60;;;2.80;99.90;;;;;;5052230;28;20071;-74
2021/04/15 02:11:31;;;;;;;21.98;16.20;;;2.80;99.90;;;;;;5052171;28;20033;-74
2021/04/15 02:14:01;;;;;;;28.40;17.30;;;2.80;99.90;;;;;;5052027;28;20057;-74
2021/04/15 02:16:32;;;;;;;23.52;15.93;;;2.90;99.90;;;;;;5050938;28;20108;-74
2021/04/15 02:19:08;;;;;;;21.15;16.20;;;2.80;99.90;;;;;;5052189;28;20017;-74
2021/04/15 02:21:49;;;;;;;22.42;15.05;;;2.80;99.90;;;;;;5052041;28;20037;-74
2021/04/15 02:24:51;;;;;;;18.95;14.02;;;2.80;99.90;;;;;;5051088;28;20017;-74
2021/04/15 02:27:42;;;;;;;25.58;16.95;;;2.60;99.90;;;;;;5051992;28;20118;-74
2021/04/15 02:30:18;;;;;;;19.90;14.65;;;2.60;99.90;;;;;;5051998;28;20105;-74
2021/04/15 02:33:02;;;;;;;22.60;13.95;;;2.60;99.90;;;;;;5051942;28;20434;-74
2021/04/15 02:35:39;;;;;;;22.27;15.35;;;2.40;99.90;;;;;;5050697;28;20392;-74
2021/04/15 02:38:06;;;;;;;22.25;15.10;;;2.40;99.90;;;;;;5051804;28;20025;-75
2021/04/15 02:40:41;;;;;;;23.80;16.30;;;2.50;99.90;;;;;;5051834;28;20159;-74
2021/04/15 02:43:19;;;;;;;22.95;15.02;;;2.60;99.90;;;;;;5050721;28;20423;-74
2021/04/15 02:45:50;;;;;;;22.48;16.27;;;2.60;99.90;;;;;;5051840;28;20028;-74
2021/04/15 02:48:23;;;;;;;22.23;15.88;;;2.60;99.90;;;;;;5051854;28;20029;-75
2021/04/15 02:50:59;;;;;;;27.30;15.73;;;2.60;99.90;;;;;;5051804;28;20033;-74
2021/04/15 02:53:51;;;;;;;23.98;15.95;;;2.50;99.90;;;;;;5051752;28;20025;-74
2021/04/15 02:56:32;;;;;;;19.45;15.13;;;2.50;99.90;;;;;;5050423;28;20111;-74
2021/04/15 02:59:10;;;;;;;20.48;15.15;;;2.50;99.90;;;;;;5051685;28;20017;-74
2021/04/15 03:01:53;;;;;;;19.45;15.13;;;2.30;99.90;;;;;;5051648;28;20021;-74
2021/04/15 03:04:22;;;;;;;20.23;15.63;;;2.20;99.90;;;;;;5051720;28;20021;-74
2021/04/15 03:06:50;;;;;;;22.95;16.10;;;2.20;99.90;;;;;;5055410;28;20039;-74
2021/04/15 03:09:18;;;;;;;33.85;16.55;;;1.90;99.90;;;;;;5055509;28;20480;-74
2021/04/15 03:11:52;;;;;;;26.73;16.00;;;1.80;99.90;;;;;;5055406;28;20025;-74
2021/04/15 03:14:32;;;;;;;21.17;16.50;;;1.80;99.90;;;;;;5055423;28;20404;-74
2021/04/15 03:17:05;;;;;;;25.83;16.20;;;1.80;99.90;;;;;;5055315;28;20385;-74
2021/04/15 03:19:36;;;;;;;24.98;15.98;;;2.00;99.90;;;;;;5054186;28;20381;-74
2021/04/15 03:22:02;;;;;;;23.67;15.13;;;2.00;99.90;;;;;;5055382;28;20116;-74
2021/04/15 03:24:35;;;;;;;23.92;16.45;;;2.10;99.90;;;;;;5055208;28;20104;-74
2021/04/15 03:27:30;;;;;;;22.85;16.27;;;2.10;99.90;;;;;;5054051;28;20075;-74
2021/04/15 03:30:16;;;;;;;21.67;16.45;;;2.20;99.90;;;;;;5050957;28;20037;-73
2021/04/15 03:33:16;;;;;;;25.30;17.05;;;2.20;99.90;;;;;;5053869;28;20029;-74
2021/04/15 03:35:52;;;;;;;21.95;16.60;;;2.20;99.90;;;;;;5054954;28;20036;-74
2021/04/15 03:38:24;;;;;;;26.73;17.50;;;2.20;99.90;;;;;;5054993;28;20029;-74
2021/04/15 03:40:56;;;;;;;25.83;18.58;;;2.00;99.90;;;;;;5054979;28;20103;-74
2021/04/15 03:43:31;;;;;;;26.42;17.77;;;2.00;99.90;;;;;;5054962;28;20396;-73
2021/04/15 03:46:18;;;;;;;27.08;17.52;;;2.10;99.90;;;;;;5054944;28;20029;-74
2021/04/15 03:48:56;;;;;;;27.60;17.92;;;2.00;99.90;;;;;;5053499;28;20116;-74
2021/04/15 03:51:35;;;;;;;27.42;17.40;;;2.10;99.90;;;;;;5054842;28;20031;-74
2021/04/15 03:54:07;;;;;;;23.85;17.88;;;2.00;99.90;;;;;;5053359;28;20072;-74
2021/04/15 03:56:40;;;;;;;27.42;17.70;;;2.10;99.90;;;;;;5053304;28;20025;-74
2021/04/15 03:59:12;;;;;;;30.73;18.63;;;1.80;99.90;;;;;;5054697;28;20534;-74
2021/04/15 04:01:48;;;;;;;26.55;18.52;;;1.80;99.90;;;;;;5054684;28;20017;-74
2021/04/15 04:04:36;;;;;;;25.58;16.02;;;1.80;99.90;;;;;;5054581;28;20032;-74
2021/04/15 04:07:09;;;;;;;29.65;17.50;;;1.70;99.90;;;;;;5054487;28;20028;-74
2021/04/15 04:09:41;;;;;;;39.20;19.23;;;1.60;99.90;;;;;;5054365;28;20024;-74
2021/04/15 04:12:08;;;;;;;;;;;1.70;99.90;;;;;;5053713;28;20481;-74
2021/04/15 04:14:57;;;;;;;27.92;17.05;;;1.80;99.90;;;;;;5052970;28;19920;-74
2021/04/15 04:17:34;;;;;;;39.83;18.67;;;1.80;99.90;;;;;;5053546;28;20017;-74
2021/04/15 04:19:59;;;;;;;29.63;15.55;;;1.90;99.90;;;;;;5054213;28;20017;-74
2021/04/15 04:22:59;;;;;;;28.10;17.13;;;1.90;99.90;;;;;;5054255;28;20538;-74
2021/04/15 04:25:59;;;;;;;26.70;18.08;;;2.00;99.90;;;;;;5054182;28;20544;-74
2021/04/15 04:29:04;;;;;;;33.95;15.50;;;1.80;99.90;;;;;;5035208;28;20028;-74
2021/04/15 04:31:36;;;;;;;23.60;16.80;;;1.60;99.90;;;;;;5054081;28;20479;-74
2021/04/15 04:34:04;;;;;;;25.95;15.70;;;1.60;99.90;;;;;;5053947;28;20017;-74
2021/04/15 04:36:32;;;;;;;23.52;16.35;;;1.80;99.90;;;;;;5053949;28;20025;-74
2021/04/15 04:38:58;;;;;;;28.85;17.60;;;1.90;99.90;;;;;;5053797;28;20477;-74
2021/04/15 04:41:50;;;;;;;28.52;18.13;;;1.90;99.90;;;;;;5035959;28;20070;-74
2021/04/15 04:44:24;;;;;;;;;;;1.80;99.90;;;;;;5054177;28;20017;-74
2021/04/15 04:47:03;;;;;;;29.02;17.92;;;1.60;99.90;;;;;;5053713;28;19999;-74
2021/04/15 04:49:33;;;;;;;28.00;17.05;;;1.60;99.90;;;;;;5053673;28;20021;-74
2021/04/15 04:52:26;;;;;;;30.48;18.45;;;1.50;99.90;;;;;;5053621;28;20139;-74
2021/04/15 04:54:53;;;;;;;44.80;18.20;;;1.50;99.90;;;;;;5051388;28;20063;-74
2021/04/15 04:57:39;;;;;;;39.97;17.63;;;1.50;99.90;;;;;;5053424;28;20089;-74
2021/04/15 05:00:19;;;;;;;31.27;19.50;;;1.50;99.90;;;;;;5053279;28;20032;-74
2021/04/15 05:02:51;;;;;;;25.73;17.98;;;1.40;99.90;;;;;;5052261;28;20029;-74
2021/04/15 05:05:27;;;;;;;34.83;19.85;;;1.50;99.90;;;;;;5053320;28;20036;-74
2021/04/15 05:08:26;;;;;;;34.13;18.48;;;1.60;99.90;;;;;;5053203;28;20024;-74
2021/04/15 05:10:57;;;;;;;29.30;18.63;;;1.70;99.90;;;;;;5009856;28;20090;-74
2021/04/15 05:13:26;;;;;;;39.05;20.05;;;1.80;99.90;;;;;;5052960;28;20021;-74
2021/04/15 05:15:53;;;;;;;54.85;21.70;;;1.80;99.90;;;;;;5051745;28;20081;-74
2021/04/15 05:18:21;;;;;;;37.88;21.02;;;1.80;99.90;;;;;;5053125;28;20064;-74
2021/04/15 05:20:48;;;;;;;32.50;19.50;;;1.80;99.90;;;;;;5053049;28;20018;-74
2021/04/15 05:23:24;;;;;;;56.28;21.90;;;1.90;99.90;;;;;;5052860;28;20385;-74
2021/04/15 05:26:05;;;;;;;36.00;19.23;;;1.90;99.90;;;;;;5051639;28;20036;-73
2021/04/15 05:28:34;;;;;;;26.45;17.75;;;1.80;99.90;;;;;;5050670;28;20179;-74
2021/04/15 05:31:05;;;;;;;30.08;17.88;;;1.80;99.90;;;;;;5051515;28;20477;-74
2021/04/15 05:33:31;;;;;;;29.08;18.30;;;1.80;99.90;;;;;;5052648;28;20452;-74
2021/04/15 05:36:29;;;;;;;31.65;20.00;;;1.80;99.90;;;;;;5052555;28;20025;-74
2021/04/15 05:38:58;;;;;;;37.00;20.75;;;1.80;99.90;;;;;;5041838;28;20033;-74
2021/04/15 05:41:30;;;;;;;34.33;18.02;;;2.00;99.90;;;;;;5052627;28;20476;-74
2021/04/15 05:44:01;;;;;;;39.70;19.35;;;1.90;99.90;;;;;;5052551;28;20492;-74
2021/04/15 05:46:39;;;;;;;34.10;19.20;;;1.90;99.90;;;;;;5051283;28;20029;-74
2021/04/15 05:49:05;;;;;;;36.05;18.90;;;2.00;99.90;;;;;;5051247;28;20028;-74
2021/04/15 05:51:47;;;;;;;39.75;18.58;;;2.10;99.90;;;;;;5052313;28;20090;-74
2021/04/15 05:54:16;;;;;;;30.92;18.85;;;2.00;99.90;;;;;;5052298;28;20503;-74
2021/04/15 05:56:57;;;;;;;30.35;18.63;;;2.00;99.90;;;;;;5050931;28;20056;-74
2021/04/15 05:59:38;;;;;;;36.30;18.23;;;1.90;99.90;;;;;;5030204;28;20424;-74
2021/04/15 06:02:22;;;;;;;34.70;16.88;;;2.00;99.90;;;;;;5032169;28;20079;-74
2021/04/15 06:05:30;;;;;;;39.05;18.88;;;2.10;99.90;;;;;;5032364;28;20025;-74
2021/04/15 06:08:04;;;;;;;32.45;20.55;;;2.00;99.90;;;;;;5032178;28;20049;-74
2021/04/15 06:10:34;;;;;;;39.15;18.70;;;2.10;99.90;;;;;;5032225;28;20021;-74
2021/04/15 06:13:06;;;;;;;27.95;17.73;;;2.20;99.90;;;;;;5032182;28;20033;-74
2021/04/15 06:15:50;;;;;;;27.00;17.63;;;2.20;99.90;;;;;;5032028;28;20032;-74
2021/04/15 06:18:45;;;;;;;32.78;18.13;;;2.20;99.90;;;;;;5032071;28;20026;-74
2021/04/15 06:21:24;;;;;;;62.78;20.85;;;2.30;99.90;;;;;;5032063;28;20053;-74
2021/04/15 06:23:54;;;;;;;28.13;16.42;;;2.50;99.90;;;;;;5030803;28;20053;-74
2021/04/15 06:26:20;;;;;;;42.88;17.42;;;2.50;99.90;;;;;;5031902;28;20022;-74
2021/04/15 06:28:49;;;;;;;30.48;16.35;;;2.60;99.90;;;;;;5031930;28;20032;-74
2021/04/15 06:31:25;;;;;;;37.53;19.17;;;2.50;99.90;;;;;;5031875;28;20024;-75
2021/04/15 06:33:58;;;;;;;30.23;17.13;;;2.50;99.90;;;;;;5030300;28;20033;-74
2021/04/15 06:36:53;;;;;;;37.80;17.17;;;2.40;99.90;;;;;;5030870;28;20084;-74
2021/04/15 06:39:32;;;;;;;34.38;16.40;;;2.60;99.90;;;;;;5030106;28;20097;-74
2021/04/15 06:42:06;;;;;;;31.52;15.65;;;2.70;99.90;;;;;;5047103;28;20405;-74
2021/04/15 06:45:03;;;;;;;29.10;17.88;;;2.70;99.90;;;;;;5052428;28;20017;-75
2021/04/15 06:48:01;;;;;;;29.92;17.35;;;3.00;99.90;;;;;;5038257;28;20030;-74
2021/04/15 06:50:51;;;;;;;33.72;15.40;;;3.10;99.90;;;;;;5038081;28;20029;-75
2021/04/15 06:53:33;;;;;;;31.02;16.92;;;3.10;99.90;;;;;;5036775;28;20033;-74
2021/04/15 06:56:25;;;;;;;28.77;16.20;;;3.10;99.90;;;;;;5038053;28;20075;-74
2021/04/15 06:59:16;;;;;;;31.60;16.40;;;3.10;99.90;;;;;;5036493;28;20033;-75
2021/04/15 07:02:03;;;;;;;32.00;16.95;;;3.20;99.90;;;;;;5038178;28;20033;-74
2021/04/15 07:04:40;;;;;;;39.28;20.45;;;3.40;99.90;;;;;;5036490;28;20116;-74
2021/04/15 07:07:22;;;;;;;40.28;17.77;;;3.50;99.90;;;;;;5036617;28;20025;-74
2021/04/15 07:10:06;;;;;;;37.85;19.08;;;3.60;99.90;;;;;;5072279;28;20055;-73
2021/04/15 07:13:09;;;;;;;28.52;18.15;;;3.60;99.90;;;;;;5076700;28;20028;-75
2021/04/15 07:15:54;;;;;;;44.95;19.10;;;3.70;99.90;;;;;;5076715;28;20032;-74
2021/04/15 07:18:41;;;;;;;33.25;18.15;;;3.70;99.90;;;;;;5077864;28;20146;-75
2021/04/15 07:21:26;;;;;;;34.28;18.15;;;3.60;99.90;;;;;;5077831;28;20392;-75
2021/04/15 07:24:19;;;;;;;31.52;19.35;;;3.60;99.90;;;;;;5060043;28;20031;-74
2021/04/15 07:26:48;;;;;;;41.05;19.42;;;3.60;99.90;;;;;;5077875;28;20032;-74
2021/04/15 07:29:36;;;;;;;32.90;19.88;;;3.60;99.90;;;;;;5036366;28;20026;-75
2021/04/15 07:32:26;;;;;;;32.15;18.58;;;3.80;99.90;;;;;;5020315;28;20445;-75
2021/04/15 07:35:40;;;;;;;27.92;18.45;;;4.00;99.90;;;;;;5075135;28;20056;-75
2021/04/15 07:38:33;;;;;;;64.88;20.00;;;4.10;99.20;;;;;;5045915;28;20480;-75
2021/04/15 07:41:21;;;;;;;36.55;19.50;;;4.20;99.90;;;;;;5076647;28;20030;-75
2021/04/15 07:44:08;;;;;;;39.03;18.92;;;4.40;98.10;;;;;;5064122;28;20045;-74
2021/04/15 07:46:58;;;;;;;33.47;17.52;;;4.50;95.60;;;;;;5077542;28;20025;-75
2021/04/15 07:49:54;;;;;;;30.90;16.73;;;4.40;95.40;;;;;;5060010;28;20071;-75
2021/04/15 07:52:56;;;;;;;48.63;17.45;;;4.20;93.80;;;;;;5036507;28;20025;-75
2021/04/15 07:55:44;;;;;;;69.47;19.20;;;4.30;92.50;;;;;;5053297;28;20391;-74
2021/04/15 07:58:31;;;;;;;26.25;15.85;;;4.40;91.70;;;;;;5033177;28;20105;-75
2021/04/15 08:01:38;;;;;;;26.65;16.30;;;4.40;92.50;;;;;;5034057;28;20026;-75
2021/04/15 08:04:46;;;;;;;21.33;14.77;;;4.40;92.90;;;;;;5032868;28;20018;-74
2021/04/15 08:07:28;;;;;;;27.98;14.35;;;4.50;93.40;;;;;;4971138;28;20039;-74
2021/04/15 08:10:12;;;;;;;26.75;14.45;;;4.70;91.90;;;;;;5033887;28;20040;-73
2021/04/15 08:12:53;;;;;;;25.48;15.65;;;4.80;92.20;;;;;;5047723;28;20044;-74
2021/04/15 08:15:20;;;;;;;27.50;14.85;;;5.00;91.90;;;;;;5052456;28;20120;-74
2021/04/15 08:18:13;;;;;;;36.05;16.17;;;5.30;91.60;;;;;;5053724;28;20024;-74
2021/04/15 08:21:07;;;;;;;25.33;15.32;;;5.30;89.90;;;;;;5053714;28;20055;-71
2021/04/15 08:24:07;;;;;;;36.90;14.93;;;5.30;87.80;;;;;;5053551;28;20028;-74
2021/04/15 08:26:33;;;;;;;23.05;13.50;;;5.40;90.10;;;;;;5012715;28;20549;-74
2021/04/15 08:29:27;;;;;;;42.53;15.80;;;5.50;88.70;;;;;;5053962;28;20147;-74
2021/04/15 08:32:12;;;;;;;37.08;15.00;;;5.90;87.00;;;;;;5053155;28;20481;-74
2021/04/15 08:34:59;;;;;;;25.40;12.30;;;6.20;83.10;;;;;;5053426;28;20078;-70
2021/04/15 08:37:56;;;;;;;91.60;20.00;;;6.60;80.40;;;;;;5051875;28;20033;-71
2021/04/15 08:40:40;;;;;;;25.30;10.63;;;7.00;78.50;;;;;;5033479;28;20025;-73
2021/04/15 08:43:25;;;;;;;38.58;7.20;;;6.70;71.80;;;;;;5033639;28;20021;-71
2021/04/15 08:46:17;;;;;;;22.15;8.73;;;6.70;65.40;;;;;;5033415;28;20542;-70
2021/04/15 08:49:11;;;;;;;19.35;9.55;;;6.50;65.40;;;;;;5033325;28;20167;-74
2021/04/15 08:51:39;;;;;;;20.60;10.18;;;7.00;66.60;;;;;;5033415;28;20115;-74
2021/04/15 08:54:42;;;;;;;46.53;9.50;;;7.50;67.70;;;;;;5033271;28;20087;-71
2021/04/15 08:57:38;;;;;;;42.00;11.43;;;7.90;66.60;;;;;;5033636;28;20083;-72
2021/04/15 09:00:26;;;;;;;30.67;9.55;;;8.00;67.00;;;;;;5033183;28;20084;-72
2021/04/15 09:03:17;;;;;;;23.42;8.80;;;8.10;66.20;;;;;;5032975;28;20512;-71
2021/04/15 09:06:24;;;;;;;19.08;8.82;;;8.60;64.80;;;;;;5011297;28;20034;-72
2021/04/15 09:08:58;;;;;;;13.48;7.60;;;8.80;62.60;;;;;;4978296;28;20035;-72
2021/04/15 09:11:39;;;;;;;16.30;8.50;;;8.80;59.50;;;;;;4991319;28;20399;-73
2021/04/15 09:14:32;;;;;;;15.95;8.55;;;9.10;59.60;;;;;;5030812;28;20045;-73
2021/04/15 09:17:26;;;;;;;13.90;7.65;;;9.20;59.90;;;;;;5057339;28;20028;-73
2021/04/15 09:20:16;;;;;;;12.98;6.82;;;9.40;60.30;;;;;;5048786;28;20021;-72
2021/04/15 09:23:15;;;;;;;11.57;5.75;;;9.90;54.90;;;;;;5051265;28;20051;-73
2021/04/15 09:26:04;;;;;;;23.95;7.00;;;10.00;53.30;;;;;;5035070;28;20044;-73
2021/04/15 09:28:55;;;;;;;22.55;6.85;;;10.10;54.20;;;;;;5013143;28;20075;-73
2021/04/15 09:31:34;;;;;;;18.38;7.07;;;10.60;54.20;;;;;;5066671;28;20029;-73
2021/04/15 09:33:59;;;;;;;15.90;6.63;;;10.70;54.50;;;;;;5055947;28;20032;-72
2021/04/15 09:36:58;;;;;;;13.55;6.82;;;11.00;53.90;;;;;;5070425;28;20395;-73
2021/04/15 09:39:35;;;;;;;19.50;8.40;;;10.30;54.10;;;;;;5032036;28;20140;-72
2021/04/15 09:42:07;;;;;;;16.70;8.13;;;8.90;56.80;;;;;;5032427;28;20026;-73
2021/04/15 09:44:33;;;;;;;;;;;8.50;57.80;;;;;;5032617;28;20097;-73
2021/04/15 09:47:23;;;;;;;20.08;6.18;;;8.60;59.30;;;;;;5030831;28;19951;-73
2021/04/15 09:50:11;;;;;;;18.25;4.60;;;9.50;53.90;;;;;;5067818;28;20052;-73
2021/04/15 09:53:05;;;;;;;16.85;5.30;;;10.00;48.90;;;;;;5070881;28;20086;-73
2021/04/15 09:55:49;;;;;;;14.57;5.72;;;10.60;51.00;;;;;;5055891;28;20120;-73
2021/04/15 09:58:38;;;;;;;12.43;5.47;;;10.20;49.60;;;;;;5052384;28;20032;-73
2021/04/15 10:01:12;;;;;;;13.50;5.95;;;10.40;50.10;;;;;;5051081;28;20388;-73
2021/04/15 10:03:47;;;;;;;10.75;4.53;;;11.00;50.10;;;;;;5055332;28;20472;-73
2021/04/15 10:06:45;;;;;;;10.07;5.32;;;11.70;47.50;;;;;;5062201;28;20085;-73
2021/04/15 10:09:38;;;;;;;13.27;5.65;;;11.30;46.50;;;;;;5019726;28;20045;-73
2021/04/15 10:12:28;;;;;;;14.90;6.10;;;10.80;48.10;;;;;;5046918;28;20048;-72
2021/04/15 10:15:18;;;;;;;31.27;7.55;;;11.60;49.60;;;;;;5046533;28;20067;-73
2021/04/15 10:18:00;;;;;;;16.75;6.00;;;11.80;48.00;;;;;;5031567;28;20030;-73
2021/04/15 10:21:00;;;;;;;17.08;6.28;;;11.80;48.60;;;;;;5042523;28;20150;-73
2021/04/15 10:24:03;;;;;;;8.75;3.40;;;11.50;49.90;;;;;;5053154;28;20475;-72
2021/04/15 10:27:00;;;;;;;20.80;3.20;;;10.20;49.20;;;;;;5064386;28;20112;-75
2021/04/15 10:29:44;;;;;;;7.93;3.10;;;9.70;50.20;;;;;;5049995;28;20089;-74
2021/04/15 10:32:29;;;;;;;11.57;3.25;;;8.80;50.50;;;;;;5051649;28;20025;-74
2021/04/15 10:35:11;;;;;;;9.35;3.13;;;8.20;52.80;;;;;;5051427;28;20028;-74
2021/04/15 10:38:09;;;;;;;9.77;4.03;;;7.90;53.80;;;;;;5051548;28;20021;-74
2021/04/15 10:40:54;;;;;;;15.57;3.85;;;7.50;53.80;;;;;;5051232;28;20029;-74
2021/04/15 10:43:50;;;;;;;6.82;3.47;;;7.60;54.90;;;;;;5057947;28;20021;-74
2021/04/15 10:46:31;;;;;;;19.75;4.35;;;7.70;54.00;;;;;;5071400;28;20024;-74
2021/04/15 10:49:31;;;;;;;5.65;3.05;;;7.80;52.40;;;;;;5062253;28;20013;-74
2021/04/15 10:52:13;;;;;;;20.40;4.50;;;7.80;51.30;;;;;;5049977;28;20033;-74
2021/04/15 10:54:44;;;;;;;8.50;3.05;;;7.40;51.00;;;;;;5051477;28;20028;-74
2021/04/15 10:57:33;;;;;;;12.10;3.37;;;7.30;49.90;;;;;;5051085;28;20021;-74
2021/04/15 11:00:17;;;;;;;14.60;3.78;;;7.50;50.50;;;;;;5055369;28;20028;-74
2021/04/15 11:03:13;;;;;;;7.75;3.30;;;7.60;51.20;;;;;;5031112;28;20108;-74
2021/04/15 11:05:44;;;;;;;19.13;3.78;;;8.40;50.60;;;;;;5030704;28;20443;-74
2021/04/15 11:08:18;;;;;;;51.45;7.45;;;9.20;47.60;;;;;;5058165;28;20030;-73
2021/04/15 11:10:45;;;;;;;22.88;3.30;;;9.60;46.40;;;;;;5071209;28;20392;-73
2021/04/15 11:13:24;;;;;;;14.68;3.78;;;9.90;43.50;;;;;;5070974;28;20027;-73
2021/04/15 11:15:56;;;;;;;12.30;3.70;;;11.00;45.10;;;;;;5071011;28;20184;-74
2021/04/15 11:18:30;;;;;;;4.60;3.20;;;11.60;42.10;;;;;;5059685;28;20044;-73
2021/04/15 11:21:34;;;;;;;14.90;4.22;;;11.60;40.00;;;;;;5051079;28;20448;-73
2021/04/15 11:24:30;;;;;;;7.55;3.38;;;12.30;40.90;;;;;;5060177;28;20079;-73
2021/04/15 11:26:59;;;;;;;14.75;3.85;;;12.30;37.40;;;;;;5051715;28;20388;-73
2021/04/15 11:29:29;;;;;;;19.27;4.20;;;11.90;39.70;;;;;;5054409;28;20488;-81
2021/04/15 11:31:56;;;;;;;15.15;4.10;;;12.40;41.40;;;;;;5082284;28;20567;-74
2021/04/15 11:34:25;;;;;;;13.05;3.20;;;12.70;39.40;;;;;;5057865;28;20454;-74
2021/04/15 11:37:19;;;;;;;24.83;4.38;;;12.60;38.00;;;;;;5074397;28;20115;-74
2021/04/15 11:39:45;;;;;;;9.48;4.47;;;12.50;38.30;;;;;;5063211;28;20024;-74
2021/04/15 11:42:14;;;;;;;25.35;5.60;;;11.90;40.70;;;;;;5044550;28;20029;-74
2021/04/15 11:44:53;;;;;;;10.55;4.97;;;12.10;41.80;;;;;;5059177;28;20542;-74
2021/04/15 11:47:23;;;;;;;6.03;4.18;;;11.10;40.70;;;;;;5054405;28;20411;-74
2021/04/15 11:49:51;;;;;;;9.85;5.13;;;10.70;43.00;;;;;;5053098;28;20124;-73
2021/04/15 11:52:19;;;;;;;7.15;4.70;;;11.60;42.50;;;;;;5056440;28;20017;-74
2021/04/15 11:55:03;;;;;;;18.48;5.38;;;12.00;42.60;;;;;;5072877;28;20107;-74
2021/04/15 11:58:02;;;;;;;36.25;6.53;;;12.70;42.90;;;;;;5032961;28;20132;-74
2021/04/15 12:00:32;;;;;;;19.98;5.88;;;12.10;41.80;;;;;;5003908;28;20112;-73
2021/04/15 12:02:58;;;;;;;16.80;6.45;;;11.30;41.20;;;;;;5063700;28;20020;-73
2021/04/15 12:05:41;;;;;;;14.70;5.47;;;10.90;42.80;;;;;;5058490;28;20021;-73
2021/04/15 12:08:34;;;;;;;24.75;7.22;;;10.40;45.10;;;;;;5050628;28;20322;-73
2021/04/15 12:11:22;;;;;;;15.20;8.25;;;9.40;49.30;;;;;;5060319;28;20087;-73
2021/04/15 12:13:55;;;;;;;14.55;8.02;;;8.80;53.90;;;;;;5067692;28;20029;-73
2021/04/15 12:16:47;;;;;;;17.90;7.97;;;8.80;55.30;;;;;;5054194;28;20083;-73
2021/04/15 12:19:24;;;;;;;17.60;8.60;;;8.30;54.80;;;;;;5061631;28;20354;-73
2021/04/15 12:22:03;;;;;;;21.48;8.02;;;8.10;57.30;;;;;;5057852;28;20107;-73
2021/04/15 12:24:41;;;;;;;14.68;8.77;;;7.70;57.60;;;;;;5057198;28;20111;-72
2021/04/15 12:27:27;;;;;;;37.92;9.18;;;7.50;59.50;;;;;;5063467;28;20032;-72
2021/04/15 12:30:05;;;;;;;24.77;8.95;;;7.60;61.70;;;;;;5057100;28;20322;-72
2021/04/15 12:33:01;;;;;;;24.95;9.52;;;7.50;60.00;;;;;;5054381;28;20068;-72
2021/04/15 12:35:43;;;;;;;21.35;8.55;;;7.60;59.90;;;;;;5051311;28;20037;-73
2021/04/15 12:38:22;;;;;;;21.50;8.93;;;7.50;60.10;;;;;;5035329;28;20095;-73
2021/04/15 12:40:51;;;;;;;25.30;9.02;;;7.50;59.60;;;;;;5049576;28;20029;-73
2021/04/15 12:43:18;;;;;;;28.83;9.18;;;7.40;59.60;;;;;;5059429;28;20107;-73
2021/04/15 12:45:53;;;;;;;45.45;11.13;;;7.30;59.60;;;;;;5059215;28;20021;-73
2021/04/15 12:48:59;;;;;;;16.05;8.55;;;7.30;60.90;;;;;;5053243;28;20021;-73
2021/04/15 12:51:34;;;;;;;14.75;8.20;;;7.30;59.70;;;;;;5033322;28;20030;-74
2021/04/15 12:54:07;;;;;;;17.00;8.80;;;7.10;59.20;;;;;;5042058;28;20031;-73
2021/04/15 12:56:44;;;;;;;27.38;9.68;;;7.20;58.60;;;;;;5066718;28;20138;-73
2021/04/15 12:59:26;;;;;;;19.52;7.78;;;7.30;58.30;;;;;;5066753;28;20024;-73
2021/04/15 13:01:53;;;;;;;10.63;6.25;;;7.60;57.40;;;;;;5068100;28;20480;-73
2021/04/15 13:04:46;;;;;;;15.93;6.78;;;7.70;55.00;;;;;;5071884;28;20060;-74
2021/04/15 13:07:14;;;;;;;13.90;7.10;;;7.80;54.10;;;;;;5068220;28;20028;-73
2021/04/15 13:09:48;;;;;;;21.50;7.25;;;8.00;53.50;;;;;;5051562;28;20035;-74
2021/04/15 13:12:20;;;;;;;13.32;7.57;;;8.20;52.50;;;;;;5053297;28;20207;-74
2021/04/15 13:14:47;;;;;;;10.38;6.53;;;8.40;50.40;;;;;;5055932;28;20036;-73
2021/04/15 13:17:35;;;;;;;13.15;6.00;;;8.60;50.80;;;;;;5052531;28;20079;-72
2021/04/15 13:20:19;;;;;;;10.05;5.85;;;8.70;50.00;;;;;;5061050;28;20035;-73
2021/04/15 13:23:06;;;;;;;35.88;7.63;;;8.90;50.00;;;;;;5072430;28;20031;-73
2021/04/15 13:25:34;;;;;;;12.75;6.75;;;9.10;48.50;;;;;;5071459;28;20028;-73
2021/04/15 13:28:07;;;;;;;11.07;6.55;;;8.80;49.00;;;;;;5071865;28;20477;-73
2021/04/15 13:30:33;;;;;;;9.90;6.88;;;8.90;48.60;;;;;;5035036;28;20025;-73
2021/04/15 13:33:11;;;;;;;11.63;7.18;;;8.80;48.50;;;;;;5052404;28;20024;-73
2021/04/15 13:35:55;;;;;;;16.85;7.00;;;8.90;49.70;;;;;;5052101;28;20028;-72
2021/04/15 13:41:05;;;;;;;10.10;7.07;;;9.00;49.90;;;;;;5067069;28;20017;-72
2021/04/15 13:43:57;;;;;;;12.63;6.85;;;9.10;48.80;;;;;;5060896;28;20028;-74
2021/04/15 13:46:23;;;;;;;16.38;7.13;;;9.10;48.60;;;;;;5071561;28;20059;-74
2021/04/15 13:48:54;;;;;;;16.83;8.15;;;8.70;49.50;;;;;;5061842;28;20028;-74